sensor_id;sensor_type;location;lat;lon;timestamp;P1;durP1;ratioP1;P2;durP2;ratioP2
74510;SDS011;62991;50.040;18.400;2023-07-24T00:01:27;3.17;;;1.63;;
74510;SDS011;62991;50.040;18.400;2023-07-24T00:04:27;4.00;;;1.90;;
74510;SDS011;62991;50.040;18.400;2023-07-24T00:07:31;3.47;;;1.90;;
74510;SDS011;62991;50.040;18.400;2023-07-24T00:10:31;5.60;;;1.80;;
74510;SDS011;62991;50.040;18.400;2023-07-24T00:13:32;4.63;;;2.10;;
74510;SDS011;62991;50.040;18.400;2023-07-24T00:16:33;4.18;;;2.08;;
74510;SDS011;62991;50.040;18.400;2023-07-24T00:19:33;2.47;;;1.40;;
74510;SDS011;62991;50.040;18.400;2023-07-24T00:22:34;3.15;;;1.60;;
74510;SDS011;62991;50.040;18.400;2023-07-24T00:25:35;8.90;;;1.88;;
74510;SDS011;62991;50.040;18.400;2023-07-24T00:28:35;5.22;;;2.13;;
74510;SDS011;62991;50.040;18.400;2023-07-24T00:31:36;4.70;;;2.35;;
74510;SDS011;62991;50.040;18.400;2023-07-24T00:34:37;4.00;;;2.00;;
74510;SDS011;62991;50.040;18.400;2023-07-24T00:37:37;4.72;;;2.17;;
74510;SDS011;62991;50.040;18.400;2023-07-24T00:40:38;6.28;;;2.05;;
74510;SDS011;62991;50.040;18.400;2023-07-24T00:43:39;4.10;;;2.10;;
74510;SDS011;62991;50.040;18.400;2023-07-24T00:46:41;4.68;;;1.88;;
74510;SDS011;62991;50.040;18.400;2023-07-24T00:49:41;5.57;;;2.15;;
74510;SDS011;62991;50.040;18.400;2023-07-24T00:52:42;7.32;;;2.05;;
74510;SDS011;62991;50.040;18.400;2023-07-24T00:55:43;4.28;;;2.47;;
74510;SDS011;62991;50.040;18.400;2023-07-24T00:58:45;4.38;;;2.30;;
74510;SDS011;62991;50.040;18.400;2023-07-24T01:01:45;4.22;;;2.03;;
74510;SDS011;62991;50.040;18.400;2023-07-24T01:04:47;4.82;;;1.92;;
74510;SDS011;62991;50.040;18.400;2023-07-24T01:07:48;4.32;;;1.80;;
74510;SDS011;62991;50.040;18.400;2023-07-24T01:10:49;3.33;;;2.00;;
74510;SDS011;62991;50.040;18.400;2023-07-24T01:13:57;4.93;;;2.25;;
74510;SDS011;62991;50.040;18.400;2023-07-24T01:16:58;5.28;;;1.83;;
74510;SDS011;62991;50.040;18.400;2023-07-24T01:20:01;5.95;;;2.28;;
74510;SDS011;62991;50.040;18.400;2023-07-24T01:23:13;5.28;;;2.40;;
74510;SDS011;62991;50.040;18.400;2023-07-24T01:26:37;4.63;;;2.10;;
74510;SDS011;62991;50.040;18.400;2023-07-24T01:29:38;4.10;;;2.08;;
74510;SDS011;62991;50.040;18.400;2023-07-24T01:32:39;3.80;;;2.03;;
74510;SDS011;62991;50.040;18.400;2023-07-24T01:35:40;4.22;;;2.10;;
74510;SDS011;62991;50.040;18.400;2023-07-24T01:38:43;5.63;;;2.33;;
74510;SDS011;62991;50.040;18.400;2023-07-24T01:41:45;4.57;;;2.40;;
74510;SDS011;62991;50.040;18.400;2023-07-24T01:44:53;4.30;;;2.20;;
74510;SDS011;62991;50.040;18.400;2023-07-24T01:47:54;7.97;;;2.08;;
74510;SDS011;62991;50.040;18.400;2023-07-24T01:50:55;5.05;;;3.15;;
74510;SDS011;62991;50.040;18.400;2023-07-24T01:53:56;6.05;;;2.88;;
74510;SDS011;62991;50.040;18.400;2023-07-24T01:56:56;6.63;;;2.42;;
74510;SDS011;62991;50.040;18.400;2023-07-24T01:59:57;4.88;;;2.30;;
74510;SDS011;62991;50.040;18.400;2023-07-24T02:02:58;8.13;;;2.88;;
74510;SDS011;62991;50.040;18.400;2023-07-24T02:05:58;4.57;;;2.22;;
74510;SDS011;62991;50.040;18.400;2023-07-24T02:08:59;6.03;;;2.50;;
74510;SDS011;62991;50.040;18.400;2023-07-24T02:12:00;5.88;;;2.20;;
74510;SDS011;62991;50.040;18.400;2023-07-24T02:15:02;5.60;;;2.60;;
74510;SDS011;62991;50.040;18.400;2023-07-24T02:18:04;8.07;;;3.35;;
74510;SDS011;62991;50.040;18.400;2023-07-24T02:21:04;5.30;;;2.40;;
74510;SDS011;62991;50.040;18.400;2023-07-24T02:24:05;7.47;;;3.15;;
74510;SDS011;62991;50.040;18.400;2023-07-24T02:27:06;9.75;;;3.63;;
74510;SDS011;62991;50.040;18.400;2023-07-24T02:30:07;7.43;;;3.80;;
74510;SDS011;62991;50.040;18.400;2023-07-24T02:33:08;6.18;;;3.33;;
74510;SDS011;62991;50.040;18.400;2023-07-24T02:36:08;6.35;;;3.17;;
74510;SDS011;62991;50.040;18.400;2023-07-24T02:39:09;5.82;;;2.92;;
74510;SDS011;62991;50.040;18.400;2023-07-24T02:42:09;6.35;;;3.75;;
74510;SDS011;62991;50.040;18.400;2023-07-24T02:45:10;7.88;;;3.78;;
74510;SDS011;62991;50.040;18.400;2023-07-24T02:48:11;9.27;;;3.20;;
74510;SDS011;62991;50.040;18.400;2023-07-24T02:51:11;5.88;;;2.88;;
74510;SDS011;62991;50.040;18.400;2023-07-24T02:54:12;8.13;;;3.03;;
74510;SDS011;62991;50.040;18.400;2023-07-24T02:57:13;7.60;;;3.22;;
74510;SDS011;62991;50.040;18.400;2023-07-24T03:00:13;7.38;;;3.10;;
74510;SDS011;62991;50.040;18.400;2023-07-24T03:03:14;6.07;;;3.08;;
74510;SDS011;62991;50.040;18.400;2023-07-24T03:06:15;7.25;;;2.78;;
74510;SDS011;62991;50.040;18.400;2023-07-24T03:09:16;7.45;;;2.78;;
74510;SDS011;62991;50.040;18.400;2023-07-24T03:12:16;5.15;;;2.80;;
74510;SDS011;62991;50.040;18.400;2023-07-24T03:15:17;5.35;;;2.78;;
74510;SDS011;62991;50.040;18.400;2023-07-24T03:18:18;6.10;;;2.72;;
74510;SDS011;62991;50.040;18.400;2023-07-24T03:21:20;5.80;;;2.70;;
74510;SDS011;62991;50.040;18.400;2023-07-24T03:24:21;5.68;;;3.05;;
74510;SDS011;62991;50.040;18.400;2023-07-24T03:27:21;7.53;;;3.08;;
74510;SDS011;62991;50.040;18.400;2023-07-24T03:30:22;7.28;;;3.00;;
74510;SDS011;62991;50.040;18.400;2023-07-24T03:33:23;6.35;;;2.85;;
74510;SDS011;62991;50.040;18.400;2023-07-24T03:36:23;8.02;;;2.80;;
74510;SDS011;62991;50.040;18.400;2023-07-24T03:39:24;6.63;;;2.90;;
74510;SDS011;62991;50.040;18.400;2023-07-24T03:42:28;6.53;;;2.83;;
74510;SDS011;62991;50.040;18.400;2023-07-24T03:45:31;5.47;;;2.75;;
74510;SDS011;62991;50.040;18.400;2023-07-24T03:48:31;6.55;;;3.15;;
74510;SDS011;62991;50.040;18.400;2023-07-24T03:51:32;6.55;;;3.17;;
74510;SDS011;62991;50.040;18.400;2023-07-24T03:54:33;7.70;;;2.63;;
74510;SDS011;62991;50.040;18.400;2023-07-24T03:57:34;7.63;;;3.17;;
74510;SDS011;62991;50.040;18.400;2023-07-24T04:00:34;8.25;;;3.28;;
74510;SDS011;62991;50.040;18.400;2023-07-24T04:03:35;10.52;;;3.33;;
74510;SDS011;62991;50.040;18.400;2023-07-24T04:06:36;7.40;;;3.05;;
74510;SDS011;62991;50.040;18.400;2023-07-24T04:09:37;6.13;;;2.72;;
74510;SDS011;62991;50.040;18.400;2023-07-24T04:12:37;6.22;;;2.88;;
74510;SDS011;62991;50.040;18.400;2023-07-24T04:15:38;5.63;;;3.10;;
74510;SDS011;62991;50.040;18.400;2023-07-24T04:18:39;5.30;;;3.70;;
74510;SDS011;62991;50.040;18.400;2023-07-24T04:21:40;5.97;;;3.20;;
74510;SDS011;62991;50.040;18.400;2023-07-24T04:24:41;7.38;;;3.08;;
74510;SDS011;62991;50.040;18.400;2023-07-24T04:27:41;5.85;;;2.88;;
74510;SDS011;62991;50.040;18.400;2023-07-24T04:30:42;7.65;;;3.05;;
74510;SDS011;62991;50.040;18.400;2023-07-24T04:33:43;6.90;;;3.08;;
74510;SDS011;62991;50.040;18.400;2023-07-24T04:36:43;7.13;;;3.17;;
74510;SDS011;62991;50.040;18.400;2023-07-24T04:39:44;5.90;;;3.17;;
74510;SDS011;62991;50.040;18.400;2023-07-24T04:42:45;8.00;;;2.80;;
74510;SDS011;62991;50.040;18.400;2023-07-24T04:45:45;5.05;;;2.63;;
74510;SDS011;62991;50.040;18.400;2023-07-24T04:48:46;5.15;;;2.75;;
74510;SDS011;62991;50.040;18.400;2023-07-24T04:51:47;8.27;;;3.38;;
74510;SDS011;62991;50.040;18.400;2023-07-24T04:54:47;7.30;;;3.03;;
74510;SDS011;62991;50.040;18.400;2023-07-24T04:57:48;7.30;;;3.10;;
74510;SDS011;62991;50.040;18.400;2023-07-24T05:00:49;8.15;;;3.17;;
74510;SDS011;62991;50.040;18.400;2023-07-24T05:03:49;8.07;;;3.25;;
74510;SDS011;62991;50.040;18.400;2023-07-24T05:06:50;8.63;;;3.50;;
74510;SDS011;62991;50.040;18.400;2023-07-24T05:09:51;6.88;;;3.45;;
74510;SDS011;62991;50.040;18.400;2023-07-24T05:12:51;6.82;;;3.45;;
74510;SDS011;62991;50.040;18.400;2023-07-24T05:15:52;6.07;;;3.15;;
74510;SDS011;62991;50.040;18.400;2023-07-24T05:18:53;6.38;;;3.03;;
74510;SDS011;62991;50.040;18.400;2023-07-24T05:21:54;6.32;;;2.95;;
74510;SDS011;62991;50.040;18.400;2023-07-24T05:24:54;7.53;;;2.88;;
74510;SDS011;62991;50.040;18.400;2023-07-24T05:27:55;5.53;;;2.90;;
74510;SDS011;62991;50.040;18.400;2023-07-24T05:30:56;5.90;;;3.33;;
74510;SDS011;62991;50.040;18.400;2023-07-24T05:34:01;7.60;;;3.78;;
74510;SDS011;62991;50.040;18.400;2023-07-24T05:37:04;6.55;;;3.17;;
74510;SDS011;62991;50.040;18.400;2023-07-24T05:40:06;7.03;;;3.22;;
74510;SDS011;62991;50.040;18.400;2023-07-24T05:43:07;7.75;;;3.45;;
74510;SDS011;62991;50.040;18.400;2023-07-24T05:46:07;5.22;;;2.80;;
74510;SDS011;62991;50.040;18.400;2023-07-24T05:49:08;7.32;;;3.38;;
74510;SDS011;62991;50.040;18.400;2023-07-24T05:52:09;4.80;;;2.88;;
74510;SDS011;62991;50.040;18.400;2023-07-24T05:55:09;6.60;;;3.40;;
74510;SDS011;62991;50.040;18.400;2023-07-24T05:58:10;5.78;;;3.22;;
74510;SDS011;62991;50.040;18.400;2023-07-24T06:01:11;6.15;;;3.05;;
74510;SDS011;62991;50.040;18.400;2023-07-24T06:04:12;7.53;;;2.95;;
74510;SDS011;62991;50.040;18.400;2023-07-24T06:07:13;5.53;;;2.97;;
74510;SDS011;62991;50.040;18.400;2023-07-24T06:10:13;6.95;;;3.33;;
74510;SDS011;62991;50.040;18.400;2023-07-24T06:13:15;6.38;;;3.15;;
74510;SDS011;62991;50.040;18.400;2023-07-24T06:16:16;11.38;;;3.67;;
74510;SDS011;62991;50.040;18.400;2023-07-24T06:19:17;6.68;;;3.35;;
74510;SDS011;62991;50.040;18.400;2023-07-24T06:22:17;6.03;;;3.33;;
74510;SDS011;62991;50.040;18.400;2023-07-24T06:25:18;11.05;;;3.78;;
74510;SDS011;62991;50.040;18.400;2023-07-24T06:28:19;6.80;;;3.60;;
74510;SDS011;62991;50.040;18.400;2023-07-24T06:31:19;7.47;;;3.25;;
74510;SDS011;62991;50.040;18.400;2023-07-24T06:34:20;7.25;;;3.25;;
74510;SDS011;62991;50.040;18.400;2023-07-24T06:37:21;8.95;;;3.53;;
74510;SDS011;62991;50.040;18.400;2023-07-24T06:40:21;7.18;;;3.50;;
74510;SDS011;62991;50.040;18.400;2023-07-24T06:43:22;7.22;;;3.78;;
74510;SDS011;62991;50.040;18.400;2023-07-24T06:46:23;6.55;;;3.53;;
74510;SDS011;62991;50.040;18.400;2023-07-24T06:49:23;8.00;;;3.80;;
74510;SDS011;62991;50.040;18.400;2023-07-24T06:52:24;7.75;;;3.20;;
74510;SDS011;62991;50.040;18.400;2023-07-24T06:55:25;5.72;;;3.17;;
74510;SDS011;62991;50.040;18.400;2023-07-24T06:58:25;6.07;;;3.03;;
74510;SDS011;62991;50.040;18.400;2023-07-24T07:01:26;7.22;;;3.88;;
74510;SDS011;62991;50.040;18.400;2023-07-24T07:04:27;6.40;;;3.28;;
74510;SDS011;62991;50.040;18.400;2023-07-24T07:07:27;6.38;;;3.33;;
74510;SDS011;62991;50.040;18.400;2023-07-24T07:10:28;7.53;;;3.25;;
74510;SDS011;62991;50.040;18.400;2023-07-24T07:13:30;5.88;;;3.40;;
74510;SDS011;62991;50.040;18.400;2023-07-24T07:16:31;6.13;;;3.17;;
74510;SDS011;62991;50.040;18.400;2023-07-24T07:19:32;7.22;;;3.33;;
74510;SDS011;62991;50.040;18.400;2023-07-24T07:22:32;8.45;;;3.50;;
74510;SDS011;62991;50.040;18.400;2023-07-24T07:25:33;5.57;;;3.03;;
74510;SDS011;62991;50.040;18.400;2023-07-24T07:28:34;8.02;;;3.65;;
74510;SDS011;62991;50.040;18.400;2023-07-24T07:31:34;6.82;;;3.22;;
74510;SDS011;62991;50.040;18.400;2023-07-24T07:34:35;7.57;;;3.38;;
74510;SDS011;62991;50.040;18.400;2023-07-24T07:37:38;6.93;;;3.00;;
74510;SDS011;62991;50.040;18.400;2023-07-24T07:40:39;7.15;;;3.67;;
74510;SDS011;62991;50.040;18.400;2023-07-24T07:43:39;5.78;;;2.90;;
74510;SDS011;62991;50.040;18.400;2023-07-24T07:46:40;6.10;;;3.25;;
74510;SDS011;62991;50.040;18.400;2023-07-24T07:49:41;7.47;;;3.40;;
74510;SDS011;62991;50.040;18.400;2023-07-24T07:52:42;9.02;;;3.53;;
74510;SDS011;62991;50.040;18.400;2023-07-24T07:55:42;10.38;;;3.63;;
74510;SDS011;62991;50.040;18.400;2023-07-24T07:58:43;6.45;;;3.15;;
74510;SDS011;62991;50.040;18.400;2023-07-24T08:01:44;9.10;;;3.47;;
74510;SDS011;62991;50.040;18.400;2023-07-24T08:04:46;9.38;;;3.50;;
74510;SDS011;62991;50.040;18.400;2023-07-24T08:07:46;8.70;;;3.67;;
74510;SDS011;62991;50.040;18.400;2023-07-24T08:10:47;7.20;;;3.90;;
74510;SDS011;62991;50.040;18.400;2023-07-24T08:13:48;7.68;;;3.15;;
74510;SDS011;62991;50.040;18.400;2023-07-24T08:16:48;5.78;;;3.25;;
74510;SDS011;62991;50.040;18.400;2023-07-24T08:19:49;6.43;;;3.25;;
74510;SDS011;62991;50.040;18.400;2023-07-24T08:22:50;6.53;;;3.08;;
74510;SDS011;62991;50.040;18.400;2023-07-24T08:25:53;11.35;;;3.63;;
74510;SDS011;62991;50.040;18.400;2023-07-24T08:28:54;8.07;;;3.13;;
74510;SDS011;62991;50.040;18.400;2023-07-24T08:31:55;7.00;;;3.45;;
74510;SDS011;62991;50.040;18.400;2023-07-24T08:34:56;7.75;;;3.63;;
74510;SDS011;62991;50.040;18.400;2023-07-24T08:37:56;8.18;;;3.63;;
74510;SDS011;62991;50.040;18.400;2023-07-24T08:41:15;8.32;;;4.20;;
74510;SDS011;62991;50.040;18.400;2023-07-24T08:44:16;7.63;;;3.90;;
74510;SDS011;62991;50.040;18.400;2023-07-24T08:47:17;8.10;;;3.67;;
74510;SDS011;62991;50.040;18.400;2023-07-24T08:50:19;6.60;;;3.42;;
74510;SDS011;62991;50.040;18.400;2023-07-24T08:53:20;6.70;;;3.55;;
74510;SDS011;62991;50.040;18.400;2023-07-24T08:56:21;8.52;;;3.38;;
74510;SDS011;62991;50.040;18.400;2023-07-24T08:59:22;6.15;;;3.45;;
74510;SDS011;62991;50.040;18.400;2023-07-24T09:02:23;7.57;;;3.15;;
74510;SDS011;62991;50.040;18.400;2023-07-24T09:05:23;7.32;;;3.08;;
74510;SDS011;62991;50.040;18.400;2023-07-24T09:11:31;8.48;;;4.07;;
74510;SDS011;62991;50.040;18.400;2023-07-24T09:14:32;7.57;;;3.22;;
74510;SDS011;62991;50.040;18.400;2023-07-24T09:17:33;7.75;;;3.67;;
74510;SDS011;62991;50.040;18.400;2023-07-24T09:20:40;7.68;;;3.50;;
74510;SDS011;62991;50.040;18.400;2023-07-24T09:23:42;11.07;;;4.18;;
74510;SDS011;62991;50.040;18.400;2023-07-24T09:26:50;8.38;;;3.10;;
74510;SDS011;62991;50.040;18.400;2023-07-24T09:29:52;9.30;;;3.22;;
74510;SDS011;62991;50.040;18.400;2023-07-24T09:32:53;9.20;;;4.57;;
74510;SDS011;62991;50.040;18.400;2023-07-24T09:36:00;9.57;;;2.88;;
74510;SDS011;62991;50.040;18.400;2023-07-24T09:39:02;6.97;;;3.30;;
74510;SDS011;62991;50.040;18.400;2023-07-24T09:42:06;6.50;;;3.20;;
74510;SDS011;62991;50.040;18.400;2023-07-24T09:45:07;7.30;;;3.10;;
74510;SDS011;62991;50.040;18.400;2023-07-24T09:48:08;6.28;;;2.75;;
74510;SDS011;62991;50.040;18.400;2023-07-24T09:51:11;9.55;;;2.88;;
74510;SDS011;62991;50.040;18.400;2023-07-24T09:57:22;8.57;;;3.28;;
74510;SDS011;62991;50.040;18.400;2023-07-24T10:00:24;9.65;;;3.42;;
74510;SDS011;62991;50.040;18.400;2023-07-24T10:03:25;7.25;;;2.72;;
74510;SDS011;62991;50.040;18.400;2023-07-24T10:06:26;7.80;;;3.38;;
74510;SDS011;62991;50.040;18.400;2023-07-24T10:09:29;9.30;;;4.32;;
74510;SDS011;62991;50.040;18.400;2023-07-24T10:12:30;8.75;;;4.13;;
74510;SDS011;62991;50.040;18.400;2023-07-24T10:15:32;11.68;;;3.88;;
74510;SDS011;62991;50.040;18.400;2023-07-24T10:18:34;8.50;;;3.70;;
74510;SDS011;62991;50.040;18.400;2023-07-24T10:21:35;7.35;;;3.33;;
74510;SDS011;62991;50.040;18.400;2023-07-24T10:24:36;9.52;;;4.55;;
74510;SDS011;62991;50.040;18.400;2023-07-24T10:27:44;10.40;;;4.00;;
74510;SDS011;62991;50.040;18.400;2023-07-24T10:30:54;16.20;;;5.00;;
74510;SDS011;62991;50.040;18.400;2023-07-24T10:34:03;11.43;;;4.75;;
74510;SDS011;62991;50.040;18.400;2023-07-24T10:37:06;14.73;;;5.43;;
74510;SDS011;62991;50.040;18.400;2023-07-24T10:40:20;12.25;;;4.43;;
74510;SDS011;62991;50.040;18.400;2023-07-24T10:43:21;9.77;;;3.80;;
74510;SDS011;62991;50.040;18.400;2023-07-24T10:46:22;9.48;;;4.38;;
74510;SDS011;62991;50.040;18.400;2023-07-24T10:49:23;7.80;;;3.83;;
74510;SDS011;62991;50.040;18.400;2023-07-24T10:52:31;6.70;;;3.03;;
74510;SDS011;62991;50.040;18.400;2023-07-24T10:55:35;7.55;;;3.17;;
74510;SDS011;62991;50.040;18.400;2023-07-24T10:58:35;7.80;;;3.67;;
74510;SDS011;62991;50.040;18.400;2023-07-24T11:01:36;9.15;;;3.78;;
74510;SDS011;62991;50.040;18.400;2023-07-24T11:04:37;14.30;;;4.25;;
74510;SDS011;62991;50.040;18.400;2023-07-24T11:07:40;8.10;;;3.47;;
74510;SDS011;62991;50.040;18.400;2023-07-24T11:10:47;9.13;;;3.45;;
74510;SDS011;62991;50.040;18.400;2023-07-24T11:13:49;7.75;;;3.92;;
74510;SDS011;62991;50.040;18.400;2023-07-24T11:16:49;7.10;;;3.42;;
74510;SDS011;62991;50.040;18.400;2023-07-24T11:19:50;11.32;;;4.07;;
74510;SDS011;62991;50.040;18.400;2023-07-24T11:22:51;8.85;;;3.42;;
74510;SDS011;62991;50.040;18.400;2023-07-24T11:25:52;6.75;;;3.50;;
74510;SDS011;62991;50.040;18.400;2023-07-24T11:28:54;9.00;;;3.50;;
74510;SDS011;62991;50.040;18.400;2023-07-24T11:31:54;8.50;;;3.80;;
74510;SDS011;62991;50.040;18.400;2023-07-24T11:34:56;6.60;;;3.30;;
74510;SDS011;62991;50.040;18.400;2023-07-24T11:37:57;8.57;;;4.00;;
74510;SDS011;62991;50.040;18.400;2023-07-24T11:40:58;10.80;;;3.92;;
74510;SDS011;62991;50.040;18.400;2023-07-24T11:43:59;7.45;;;3.38;;
74510;SDS011;62991;50.040;18.400;2023-07-24T11:47:00;8.90;;;4.20;;
74510;SDS011;62991;50.040;18.400;2023-07-24T11:50:05;12.65;;;3.83;;
74510;SDS011;62991;50.040;18.400;2023-07-24T11:53:06;7.85;;;3.35;;
74510;SDS011;62991;50.040;18.400;2023-07-24T11:56:12;11.55;;;4.53;;
74510;SDS011;62991;50.040;18.400;2023-07-24T11:59:14;7.00;;;3.92;;
74510;SDS011;62991;50.040;18.400;2023-07-24T12:02:15;8.98;;;3.80;;
74510;SDS011;62991;50.040;18.400;2023-07-24T12:05:16;8.38;;;3.17;;
74510;SDS011;62991;50.040;18.400;2023-07-24T12:08:19;10.07;;;3.95;;
74510;SDS011;62991;50.040;18.400;2023-07-24T12:11:24;7.75;;;3.50;;
74510;SDS011;62991;50.040;18.400;2023-07-24T12:14:25;8.68;;;3.67;;
74510;SDS011;62991;50.040;18.400;2023-07-24T12:17:26;10.15;;;3.90;;
74510;SDS011;62991;50.040;18.400;2023-07-24T12:20:27;9.50;;;4.07;;
74510;SDS011;62991;50.040;18.400;2023-07-24T12:23:28;8.52;;;4.00;;
74510;SDS011;62991;50.040;18.400;2023-07-24T12:26:28;9.02;;;3.95;;
74510;SDS011;62991;50.040;18.400;2023-07-24T12:29:29;10.00;;;4.50;;
74510;SDS011;62991;50.040;18.400;2023-07-24T12:32:30;8.75;;;4.10;;
74510;SDS011;62991;50.040;18.400;2023-07-24T12:35:30;8.15;;;3.35;;
74510;SDS011;62991;50.040;18.400;2023-07-24T12:38:31;9.32;;;4.10;;
74510;SDS011;62991;50.040;18.400;2023-07-24T12:41:32;8.27;;;4.60;;
74510;SDS011;62991;50.040;18.400;2023-07-24T12:44:32;9.07;;;3.95;;
74510;SDS011;62991;50.040;18.400;2023-07-24T12:47:33;13.88;;;3.95;;
74510;SDS011;62991;50.040;18.400;2023-07-24T12:50:34;9.65;;;4.22;;
74510;SDS011;62991;50.040;18.400;2023-07-24T12:53:34;10.43;;;4.15;;
74510;SDS011;62991;50.040;18.400;2023-07-24T12:56:35;10.00;;;4.68;;
74510;SDS011;62991;50.040;18.400;2023-07-24T12:59:36;7.75;;;3.83;;
74510;SDS011;62991;50.040;18.400;2023-07-24T13:02:36;12.02;;;4.78;;
74510;SDS011;62991;50.040;18.400;2023-07-24T13:05:37;9.13;;;4.20;;
74510;SDS011;62991;50.040;18.400;2023-07-24T13:08:38;10.35;;;4.18;;
74510;SDS011;62991;50.040;18.400;2023-07-24T13:11:39;8.00;;;3.88;;
74510;SDS011;62991;50.040;18.400;2023-07-24T13:14:40;6.88;;;3.10;;
74510;SDS011;62991;50.040;18.400;2023-07-24T13:17:40;9.45;;;4.03;;
74510;SDS011;62991;50.040;18.400;2023-07-24T13:20:41;9.35;;;4.25;;
74510;SDS011;62991;50.040;18.400;2023-07-24T13:23:42;9.93;;;3.55;;
74510;SDS011;62991;50.040;18.400;2023-07-24T13:26:42;8.45;;;4.88;;
74510;SDS011;62991;50.040;18.400;2023-07-24T13:29:44;7.88;;;4.43;;
74510;SDS011;62991;50.040;18.400;2023-07-24T13:32:44;11.43;;;4.80;;
74510;SDS011;62991;50.040;18.400;2023-07-24T13:35:45;8.32;;;4.03;;
74510;SDS011;62991;50.040;18.400;2023-07-24T13:38:46;7.65;;;3.92;;
74510;SDS011;62991;50.040;18.400;2023-07-24T13:41:46;9.75;;;4.28;;
74510;SDS011;62991;50.040;18.400;2023-07-24T13:44:47;8.35;;;4.68;;
74510;SDS011;62991;50.040;18.400;2023-07-24T13:47:48;11.65;;;4.43;;
74510;SDS011;62991;50.040;18.400;2023-07-24T13:50:49;7.75;;;3.72;;
74510;SDS011;62991;50.040;18.400;2023-07-24T13:53:50;11.52;;;4.03;;
74510;SDS011;62991;50.040;18.400;2023-07-24T13:56:52;7.65;;;3.65;;
74510;SDS011;62991;50.040;18.400;2023-07-24T13:59:53;10.85;;;4.70;;
74510;SDS011;62991;50.040;18.400;2023-07-24T14:02:53;9.00;;;4.90;;
74510;SDS011;62991;50.040;18.400;2023-07-24T14:05:54;8.77;;;4.32;;
74510;SDS011;62991;50.040;18.400;2023-07-24T14:08:55;10.55;;;4.55;;
74510;SDS011;62991;50.040;18.400;2023-07-24T14:11:56;12.05;;;4.82;;
74510;SDS011;62991;50.040;18.400;2023-07-24T14:14:57;8.80;;;4.35;;
74510;SDS011;62991;50.040;18.400;2023-07-24T14:17:58;10.10;;;4.20;;
74510;SDS011;62991;50.040;18.400;2023-07-24T14:20:58;10.13;;;4.22;;
74510;SDS011;62991;50.040;18.400;2023-07-24T14:23:59;9.77;;;4.22;;
74510;SDS011;62991;50.040;18.400;2023-07-24T14:27:00;8.25;;;4.55;;
74510;SDS011;62991;50.040;18.400;2023-07-24T14:30:01;7.07;;;3.60;;
74510;SDS011;62991;50.040;18.400;2023-07-24T14:33:01;8.82;;;4.15;;
74510;SDS011;62991;50.040;18.400;2023-07-24T14:36:02;8.63;;;4.78;;
74510;SDS011;62991;50.040;18.400;2023-07-24T14:39:03;10.65;;;4.07;;
74510;SDS011;62991;50.040;18.400;2023-07-24T14:42:04;18.60;;;4.35;;
74510;SDS011;62991;50.040;18.400;2023-07-24T14:45:05;5.30;;;2.92;;
74510;SDS011;62991;50.040;18.400;2023-07-24T14:48:06;8.27;;;2.65;;
74510;SDS011;62991;50.040;18.400;2023-07-24T14:51:12;9.73;;;2.92;;
74510;SDS011;62991;50.040;18.400;2023-07-24T14:54:13;5.78;;;2.60;;
74510;SDS011;62991;50.040;18.400;2023-07-24T14:57:14;8.80;;;3.17;;
74510;SDS011;62991;50.040;18.400;2023-07-24T15:00:14;11.40;;;2.55;;
74510;SDS011;62991;50.040;18.400;2023-07-24T15:03:16;5.53;;;2.72;;
74510;SDS011;62991;50.040;18.400;2023-07-24T15:06:17;7.20;;;3.50;;
74510;SDS011;62991;50.040;18.400;2023-07-24T15:09:17;12.98;;;4.10;;
74510;SDS011;62991;50.040;18.400;2023-07-24T15:12:18;11.63;;;4.60;;
74510;SDS011;62991;50.040;18.400;2023-07-24T15:15:19;11.07;;;5.10;;
74510;SDS011;62991;50.040;18.400;2023-07-24T15:18:19;9.55;;;4.43;;
74510;SDS011;62991;50.040;18.400;2023-07-24T15:21:20;8.50;;;3.92;;
74510;SDS011;62991;50.040;18.400;2023-07-24T15:24:21;13.52;;;3.45;;
74510;SDS011;62991;50.040;18.400;2023-07-24T15:27:21;7.43;;;3.63;;
74510;SDS011;62991;50.040;18.400;2023-07-24T15:30:22;6.20;;;3.22;;
74510;SDS011;62991;50.040;18.400;2023-07-24T15:33:24;6.65;;;2.70;;
74510;SDS011;62991;50.040;18.400;2023-07-24T15:36:25;6.68;;;2.72;;
74510;SDS011;62991;50.040;18.400;2023-07-24T15:39:25;8.43;;;3.28;;
74510;SDS011;62991;50.040;18.400;2023-07-24T15:42:26;6.03;;;2.60;;
74510;SDS011;62991;50.040;18.400;2023-07-24T15:45:27;7.22;;;3.13;;
74510;SDS011;62991;50.040;18.400;2023-07-24T15:48:27;6.60;;;3.08;;
74510;SDS011;62991;50.040;18.400;2023-07-24T15:51:28;7.18;;;3.58;;
74510;SDS011;62991;50.040;18.400;2023-07-24T15:54:29;8.93;;;4.03;;
74510;SDS011;62991;50.040;18.400;2023-07-24T15:57:30;7.82;;;3.40;;
74510;SDS011;62991;50.040;18.400;2023-07-24T16:00:31;5.50;;;2.40;;
74510;SDS011;62991;50.040;18.400;2023-07-24T16:03:31;7.93;;;3.42;;
74510;SDS011;62991;50.040;18.400;2023-07-24T16:06:32;15.88;;;6.10;;
74510;SDS011;62991;50.040;18.400;2023-07-24T16:09:33;16.30;;;6.35;;
74510;SDS011;62991;50.040;18.400;2023-07-24T16:12:33;11.07;;;4.93;;
74510;SDS011;62991;50.040;18.400;2023-07-24T16:15:34;11.27;;;5.38;;
74510;SDS011;62991;50.040;18.400;2023-07-24T16:18:35;9.45;;;3.92;;
74510;SDS011;62991;50.040;18.400;2023-07-24T16:21:36;12.07;;;4.72;;
74510;SDS011;62991;50.040;18.400;2023-07-24T16:24:37;10.63;;;4.80;;
74510;SDS011;62991;50.040;18.400;2023-07-24T16:27:37;9.32;;;4.57;;
74510;SDS011;62991;50.040;18.400;2023-07-24T16:30:38;10.40;;;4.85;;
74510;SDS011;62991;50.040;18.400;2023-07-24T16:33:39;10.75;;;4.07;;
74510;SDS011;62991;50.040;18.400;2023-07-24T16:36:39;17.77;;;4.88;;
74510;SDS011;62991;50.040;18.400;2023-07-24T16:39:40;10.15;;;4.03;;
74510;SDS011;62991;50.040;18.400;2023-07-24T16:42:41;11.13;;;4.53;;
74510;SDS011;62991;50.040;18.400;2023-07-24T16:45:42;8.65;;;3.75;;
74510;SDS011;62991;50.040;18.400;2023-07-24T16:48:45;9.23;;;4.25;;
74510;SDS011;62991;50.040;18.400;2023-07-24T16:51:49;10.68;;;4.88;;
74510;SDS011;62991;50.040;18.400;2023-07-24T16:54:50;8.85;;;4.82;;
74510;SDS011;62991;50.040;18.400;2023-07-24T16:57:50;9.50;;;4.07;;
74510;SDS011;62991;50.040;18.400;2023-07-24T17:00:51;10.45;;;4.55;;
74510;SDS011;62991;50.040;18.400;2023-07-24T17:03:52;7.07;;;3.17;;
74510;SDS011;62991;50.040;18.400;2023-07-24T17:06:52;11.23;;;3.60;;
74510;SDS011;62991;50.040;18.400;2023-07-24T17:09:53;7.68;;;3.45;;
74510;SDS011;62991;50.040;18.400;2023-07-24T17:12:54;13.35;;;4.50;;
74510;SDS011;62991;50.040;18.400;2023-07-24T17:15:54;10.45;;;3.97;;
74510;SDS011;62991;50.040;18.400;2023-07-24T17:18:55;6.45;;;3.00;;
74510;SDS011;62991;50.040;18.400;2023-07-24T17:21:56;8.85;;;3.42;;
74510;SDS011;62991;50.040;18.400;2023-07-24T17:24:57;9.73;;;3.35;;
74510;SDS011;62991;50.040;18.400;2023-07-24T17:27:57;7.80;;;3.80;;
74510;SDS011;62991;50.040;18.400;2023-07-24T17:30:58;8.38;;;2.83;;
74510;SDS011;62991;50.040;18.400;2023-07-24T17:33:59;7.93;;;4.05;;
74510;SDS011;62991;50.040;18.400;2023-07-24T17:37:00;7.00;;;3.25;;
74510;SDS011;62991;50.040;18.400;2023-07-24T17:40:10;9.85;;;3.65;;
74510;SDS011;62991;50.040;18.400;2023-07-24T17:43:11;12.10;;;4.70;;
74510;SDS011;62991;50.040;18.400;2023-07-24T17:46:12;9.77;;;4.07;;
74510;SDS011;62991;50.040;18.400;2023-07-24T17:49:13;8.88;;;3.78;;
74510;SDS011;62991;50.040;18.400;2023-07-24T17:52:14;13.82;;;4.28;;
74510;SDS011;62991;50.040;18.400;2023-07-24T17:55:15;10.10;;;4.35;;
74510;SDS011;62991;50.040;18.400;2023-07-24T17:58:16;7.55;;;3.28;;
74510;SDS011;62991;50.040;18.400;2023-07-24T18:01:17;13.18;;;4.35;;